Time;durP1;ratioP1;P1;durP2;ratioP2;P2;SDS_P1;SDS_P2;PMS_P1;PMS_P2;Temp;Humidity;BMP_temperature;BMP_pressure;BME280_temperature;BME280_humidity;BME280_pressure;Samples;Min_cycle;Max_cycle;Signal;HPM_P1;HPM_P2
2023/04/12 00:00:45;;;;;;;5.05;1.90;;;19.90;99.90;;;;;;5132829;27;20571;-77
2023/04/12 00:03:19;;;;;;;5.65;1.92;;;20.00;99.90;;;;;;5117841;27;20235;-77
2023/04/12 00:05:53;;;;;;;6.68;1.67;;;20.10;99.90;;;;;;5133300;27;20637;-77
2023/04/12 00:08:31;;;;;;;7.30;2.10;;;20.20;99.90;;;;;;5134343;27;20221;-76
2023/04/12 00:11:03;;;;;;;3.10;1.40;;;20.30;99.90;;;;;;5133262;27;20267;-77
2023/04/12 00:13:34;;;;;;;8.23;1.70;;;20.30;99.90;;;;;;5131939;27;20717;-76
2023/04/12 00:16:05;;;;;;;4.38;1.67;;;20.50;99.90;;;;;;5133364;27;20204;-77
2023/04/12 00:18:41;;;;;;;5.35;1.70;;;20.50;99.90;;;;;;5121159;27;20199;-76
2023/04/12 00:21:12;;;;;;;7.40;1.73;;;20.60;99.90;;;;;;5130044;27;20209;-76
2023/04/12 00:23:43;;;;;;;3.17;1.65;;;20.70;99.90;;;;;;5133809;27;20226;-77
2023/04/12 00:26:15;;;;;;;4.68;1.48;;;20.60;99.90;;;;;;5133478;27;20190;-78
2023/04/12 00:28:46;;;;;;;9.23;1.45;;;20.60;99.90;;;;;;5131535;27;20190;-76
2023/04/12 00:31:17;;;;;;;4.00;1.70;;;20.60;99.90;;;;;;5132343;27;20226;-75
2023/04/12 00:33:50;;;;;;;5.72;1.70;;;20.60;99.90;;;;;;5117004;27;20203;-75
2023/04/12 00:36:21;;;;;;;5.50;1.85;;;20.60;99.90;;;;;;5132888;27;20194;-77
2023/04/12 00:38:52;;;;;;;9.57;1.92;;;20.70;99.90;;;;;;5133246;27;20205;-77
2023/04/12 00:41:24;;;;;;;7.78;1.90;;;20.90;99.90;;;;;;5133019;27;20194;-76
2023/04/12 00:43:55;;;;;;;11.43;1.50;;;20.90;99.90;;;;;;5132735;27;20616;-76
2023/04/12 00:46:28;;;;;;;7.53;1.40;;;21.00;99.90;;;;;;5114236;27;20648;-76
2023/04/12 00:49:01;;;;;;;3.70;1.27;;;21.00;99.90;;;;;;5131631;27;20190;-76
2023/04/12 00:51:34;;;;;;;3.55;1.42;;;20.90;99.90;;;;;;5128994;27;20255;-76
2023/04/12 00:54:06;;;;;;;4.13;1.50;;;21.00;99.90;;;;;;5129747;27;20255;-76
2023/04/12 00:56:39;;;;;;;3.70;1.38;;;21.00;99.90;;;;;;5133476;27;20247;-77
2023/04/12 00:59:10;;;;;;;3.83;1.42;;;20.90;99.90;;;;;;5133180;27;20197;-76
2023/04/12 01:01:41;;;;;;;3.05;1.38;;;21.00;99.90;;;;;;5133312;27;20190;-77
2023/04/12 01:04:14;;;;;;;4.68;1.20;;;21.20;99.90;;;;;;5130887;27;20541;-76
2023/04/12 01:07:00;;;;;;;4.20;1.27;;;21.40;99.90;;;;;;5128048;27;20193;-76
2023/04/12 01:09:41;;;;;;;4.07;1.27;;;21.40;99.90;;;;;;5130450;27;20194;-76
2023/04/12 01:12:22;;;;;;;1.80;1.00;;;21.40;99.90;;;;;;5132046;27;20254;-76
2023/04/12 01:14:57;;;;;;;10.05;1.48;;;21.40;99.90;;;;;;5132335;27;20247;-77
2023/04/12 01:17:36;;;;;;;7.60;1.50;;;21.50;99.90;;;;;;5116783;27;20549;-76
2023/04/12 01:20:16;;;;;;;1.77;1.08;;;21.60;99.90;;;;;;5130136;27;20201;-77
2023/04/12 01:23:15;;;;;;;7.45;1.38;;;21.60;99.90;;;;;;5130459;27;20210;-76
2023/04/12 01:26:01;;;;;;;5.35;1.60;;;21.70;99.90;;;;;;5128928;27;20197;-77
2023/04/12 01:28:38;;;;;;;4.28;1.40;;;21.70;99.90;;;;;;5131708;27;20276;-76
2023/04/12 01:31:11;;;;;;;3.60;1.30;;;21.70;99.90;;;;;;5130052;27;20240;-75
2023/04/12 01:33:45;;;;;;;3.95;1.20;;;21.70;99.90;;;;;;5132522;27;20201;-76
2023/04/12 01:36:18;;;;;;;3.25;1.10;;;21.80;99.90;;;;;;5130603;27;20201;-76
2023/04/12 01:38:50;;;;;;;3.10;1.30;;;21.80;99.90;;;;;;5130390;27;20555;-76
2023/04/12 01:41:23;;;;;;;4.45;1.45;;;21.70;99.90;;;;;;5130587;27;20197;-76
2023/04/12 01:43:56;;;;;;;4.45;1.20;;;21.60;99.90;;;;;;5132320;27;20660;-77
2023/04/12 01:46:27;;;;;;;2.75;1.30;;;21.60;99.90;;;;;;5127924;27;20546;-77
2023/04/12 01:48:59;;;;;;;2.33;1.30;;;21.60;99.90;;;;;;5129738;27;20273;-76
2023/04/12 01:51:51;;;;;;;3.38;1.30;;;21.60;99.90;;;;;;5130393;27;20218;-76
2023/04/12 01:54:24;;;;;;;4.25;1.60;;;21.50;99.90;;;;;;5130725;27;20201;-77
2023/04/12 01:56:59;;;;;;;5.28;1.40;;;21.50;99.90;;;;;;5130440;27;20281;-77
2023/04/12 01:59:36;;;;;;;3.70;1.33;;;21.60;99.90;;;;;;5132006;27;20198;-77
2023/04/12 02:02:08;;;;;;;6.03;1.80;;;21.60;99.90;;;;;;5129821;27;20214;-77
2023/04/12 02:04:44;;;;;;;4.90;1.70;;;21.60;99.90;;;;;;5132703;27;20217;-78
2023/04/12 02:07:17;;;;;;;5.28;1.42;;;21.50;99.90;;;;;;5132436;27;20660;-77
2023/04/12 02:09:51;;;;;;;5.68;1.50;;;21.50;99.90;;;;;;5100595;27;21955;-77
2023/04/12 02:12:24;;;;;;;5.22;1.52;;;21.50;99.90;;;;;;5111065;27;20194;-79
2023/04/12 02:14:57;;;;;;;3.58;1.33;;;21.50;99.90;;;;;;5126731;27;20225;-77
2023/04/12 02:17:28;;;;;;;3.33;1.30;;;21.60;99.90;;;;;;5127279;27;20676;-77
2023/04/12 02:19:59;;;;;;;3.90;1.40;;;21.60;99.90;;;;;;5102227;27;21102;-77
2023/04/12 02:22:30;;;;;;;3.53;1.40;;;21.60;99.90;;;;;;5118113;27;20229;-79
2023/04/12 02:25:01;;;;;;;5.28;1.30;;;21.60;99.90;;;;;;5130749;27;20716;-78
2023/04/12 02:27:33;;;;;;;3.78;1.50;;;21.60;99.90;;;;;;5109003;27;20211;-77
2023/04/12 02:30:06;;;;;;;5.38;1.50;;;21.70;99.90;;;;;;5124658;27;20213;-77
2023/04/12 02:32:42;;;;;;;5.93;1.60;;;21.70;99.90;;;;;;5127815;27;20194;-77
2023/04/12 02:35:16;;;;;;;6.20;1.52;;;21.80;99.90;;;;;;5125576;27;20281;-77
2023/04/12 02:37:48;;;;;;;4.13;1.33;;;21.90;99.90;;;;;;5125953;27;20251;-78
2023/04/12 02:40:19;;;;;;;4.90;1.83;;;22.10;99.90;;;;;;5126695;27;20548;-78
2023/04/12 02:42:50;;;;;;;6.45;1.55;;;22.10;99.90;;;;;;5129087;27;20652;-77
2023/04/12 02:45:23;;;;;;;3.03;1.58;;;22.10;99.90;;;;;;5129150;27;20194;-77
2023/04/12 02:47:54;;;;;;;5.38;1.27;;;22.00;99.90;;;;;;5130376;27;20194;-78
2023/04/12 02:50:25;;;;;;;2.53;1.05;;;22.00;99.90;;;;;;5128346;27;20213;-78
2023/04/12 02:52:56;;;;;;;3.75;1.27;;;22.10;99.90;;;;;;5122788;27;20190;-78
2023/04/12 02:55:29;;;;;;;6.68;1.30;;;22.00;99.90;;;;;;5125258;27;20186;-78
2023/04/12 02:58:00;;;;;;;2.42;1.30;;;22.00;99.90;;;;;;5119918;27;20213;-78
2023/04/12 03:00:33;;;;;;;4.75;1.55;;;22.10;99.90;;;;;;5131537;27;20197;-78
2023/04/12 03:03:04;;;;;;;4.70;1.45;;;22.10;99.90;;;;;;5099312;27;20199;-78
2023/04/12 03:05:36;;;;;;;4.45;1.80;;;22.10;99.90;;;;;;5118710;27;20213;-79
2023/04/12 03:08:08;;;;;;;3.53;1.58;;;22.00;99.90;;;;;;5130964;27;20274;-78
2023/04/12 03:10:39;;;;;;;3.53;1.50;;;22.00;99.90;;;;;;5117277;28;20221;-77
2023/04/12 03:13:10;;;;;;;3.22;1.73;;;21.90;99.90;;;;;;5132083;27;20221;-77
2023/04/12 03:15:44;;;;;;;3.67;1.48;;;22.00;99.90;;;;;;5129337;27;20212;-78
2023/04/12 03:18:16;;;;;;;7.68;1.80;;;22.00;99.90;;;;;;5111680;28;20195;-79
2023/04/12 03:20:47;;;;;;;4.90;1.88;;;21.90;99.90;;;;;;5126047;28;20197;-78
2023/04/12 03:23:18;;;;;;;6.07;1.52;;;21.80;99.90;;;;;;5129210;27;20560;-78
2023/04/12 03:25:50;;;;;;;4.13;1.67;;;21.90;99.90;;;;;;5118628;27;20227;-78
2023/04/12 03:28:22;;;;;;;4.63;1.52;;;21.80;99.90;;;;;;5131948;27;20204;-77
2023/04/12 03:30:55;;;;;;;2.97;1.58;;;21.80;99.90;;;;;;5124506;27;20224;-77
2023/04/12 03:33:26;;;;;;;5.85;1.85;;;21.80;99.90;;;;;;5129910;27;20193;-77
2023/04/12 03:35:57;;;;;;;4.18;1.50;;;21.90;99.90;;;;;;5116484;27;20194;-78
2023/04/12 03:38:28;;;;;;;3.63;1.45;;;21.90;99.90;;;;;;5122819;27;20198;-77
2023/04/12 03:40:59;;;;;;;2.65;1.40;;;22.00;99.90;;;;;;5124297;28;20202;-77
2023/04/12 03:43:34;;;;;;;3.53;1.50;;;22.00;99.90;;;;;;5119850;27;20210;-77
2023/04/12 03:46:08;;;;;;;3.15;1.55;;;22.10;99.90;;;;;;5111375;28;20202;-78
2023/04/12 03:48:39;;;;;;;3.85;1.88;;;22.20;99.90;;;;;;5114172;28;20190;-78
2023/04/12 03:51:11;;;;;;;3.25;1.80;;;22.20;99.90;;;;;;5136172;27;20217;-77
2023/04/12 03:53:42;;;;;;;3.53;1.50;;;22.20;99.90;;;;;;5135689;27;20205;-77
2023/04/12 03:56:13;;;;;;;4.82;1.60;;;22.20;99.90;;;;;;5132446;27;20194;-77
2023/04/12 03:58:44;;;;;;;2.08;1.50;;;22.20;99.90;;;;;;5121024;27;20205;-77
2023/04/12 04:01:18;;;;;;;2.92;1.73;;;22.20;99.90;;;;;;5122485;27;20202;-77
2023/04/12 04:03:49;;;;;;;3.28;1.30;;;22.10;99.90;;;;;;5126715;27;20247;-77
2023/04/12 04:06:20;;;;;;;3.90;1.40;;;22.10;99.90;;;;;;5117737;27;20221;-77
2023/04/12 04:08:52;;;;;;;2.78;1.40;;;22.10;99.90;;;;;;5119665;27;20648;-78
2023/04/12 04:11:23;;;;;;;3.17;1.40;;;22.20;99.90;;;;;;5107340;27;20230;-77
2023/04/12 04:13:54;;;;;;;2.72;1.23;;;22.10;99.90;;;;;;5113705;27;20197;-78
2023/04/12 04:16:28;;;;;;;2.95;1.50;;;22.20;99.90;;;;;;5126730;27;20686;-78
2023/04/12 04:19:00;;;;;;;4.47;1.35;;;22.30;99.90;;;;;;5124972;27;20202;-78
2023/04/12 04:21:31;;;;;;;5.47;1.15;;;22.30;99.90;;;;;;5130661;27;20197;-78
2023/04/12 04:24:03;;;;;;;1.75;1.13;;;22.30;99.90;;;;;;5123073;27;20226;-78
2023/04/12 04:26:34;;;;;;;1.63;1.10;;;22.30;99.90;;;;;;5134423;27;20198;-78
2023/04/12 04:29:05;;;;;;;2.17;1.10;;;22.30;99.90;;;;;;5126431;27;20258;-78
2023/04/12 04:31:44;;;;;;;2.58;1.10;;;22.20;99.90;;;;;;5133298;27;20230;-77
2023/04/12 04:34:15;;;;;;;1.63;1.20;;;22.20;99.90;;;;;;5109194;27;20204;-77
2023/04/12 04:36:46;;;;;;;2.80;0.98;;;22.20;99.90;;;;;;5130793;27;20198;-78
2023/04/12 04:39:17;;;;;;;2.80;1.20;;;22.20;99.90;;;;;;5133247;27;20190;-78
2023/04/12 04:41:53;;;;;;;2.15;1.10;;;22.20;99.90;;;;;;5133284;27;20201;-77
2023/04/12 04:44:24;;;;;;;1.35;0.95;;;22.10;99.90;;;;;;5111420;27;20197;-77
2023/04/12 04:46:59;;;;;;;2.80;0.95;;;22.10;99.90;;;;;;5131080;27;20899;-78
2023/04/12 04:49:30;;;;;;;1.75;1.00;;;22.10;99.90;;;;;;5117342;27;20185;-78
2023/04/12 04:52:01;;;;;;;1.98;1.00;;;22.10;99.90;;;;;;5133990;27;20213;-77
2023/04/12 04:54:33;;;;;;;2.47;0.90;;;22.10;99.90;;;;;;5132332;27;20202;-78
2023/04/12 04:57:06;;;;;;;3.40;1.00;;;22.10;99.90;;;;;;5114391;27;21176;-77
2023/04/12 04:59:37;;;;;;;1.30;0.75;;;22.10;99.90;;;;;;5131252;27;20192;-77
2023/04/12 05:02:10;;;;;;;2.03;0.90;;;22.00;99.90;;;;;;5132363;27;20202;-77
2023/04/12 05:04:41;;;;;;;2.70;0.90;;;22.10;99.90;;;;;;5132275;27;20210;-77
2023/04/12 05:07:13;;;;;;;2.00;0.80;;;22.10;99.90;;;;;;5132292;27;20561;-78
2023/04/12 05:09:44;;;;;;;1.20;0.82;;;22.10;99.90;;;;;;5132323;27;20680;-77
2023/04/12 05:12:15;;;;;;;1.35;0.70;;;22.10;99.90;;;;;;5133300;27;20217;-77
2023/04/12 05:14:46;;;;;;;1.73;0.90;;;22.10;99.80;;;;;;5132243;27;20201;-77
2023/04/12 05:17:19;;;;;;;1.63;0.82;;;22.10;98.20;;;;;;5132392;27;20209;-78
2023/04/12 05:19:50;;;;;;;1.00;0.90;;;22.20;97.60;;;;;;5121772;27;20203;-78
2023/04/12 05:22:21;;;;;;;0.80;0.70;;;22.40;98.00;;;;;;5125638;27;20197;-79
2023/04/12 05:24:53;;;;;;;2.13;0.63;;;22.30;95.90;;;;;;5130368;27;20695;-79
2023/04/12 05:27:24;;;;;;;0.93;0.73;;;22.30;96.60;;;;;;5131557;27;20194;-79
2023/04/12 05:29:55;;;;;;;1.08;0.70;;;22.30;96.70;;;;;;5122927;27;20546;-79
2023/04/12 05:32:28;;;;;;;3.03;1.20;;;22.30;97.70;;;;;;5134114;27;20226;-78
2023/04/12 05:34:59;;;;;;;1.45;1.13;;;22.20;99.90;;;;;;5126923;27;20195;-78
2023/04/12 05:37:30;;;;;;;1.88;1.33;;;22.20;99.90;;;;;;5115816;27;20195;-77
2023/04/12 05:40:01;;;;;;;4.13;1.25;;;22.20;99.90;;;;;;5124297;27;20208;-78
2023/04/12 05:42:32;;;;;;;2.22;1.23;;;22.20;99.90;;;;;;5124820;27;20194;-78
2023/04/12 05:45:05;;;;;;;1.65;1.10;;;22.30;99.90;;;;;;5122612;27;20569;-79
2023/04/12 05:47:39;;;;;;;1.30;1.13;;;22.40;99.90;;;;;;5131873;27;20212;-78
2023/04/12 05:50:11;;;;;;;2.63;1.20;;;22.60;99.90;;;;;;5131703;27;20823;-79
2023/04/12 05:52:42;;;;;;;3.28;1.30;;;22.70;99.90;;;;;;5134371;27;20225;-78
2023/04/12 05:55:13;;;;;;;3.85;1.08;;;22.90;99.90;;;;;;5134242;27;20204;-78
2023/04/12 05:57:46;;;;;;;2.13;1.33;;;22.80;99.90;;;;;;5115983;27;20190;-79
2023/04/12 06:00:18;;;;;;;2.22;1.15;;;22.90;99.90;;;;;;5133866;27;20193;-79
2023/04/12 06:02:52;;;;;;;2.33;1.42;;;22.90;99.90;;;;;;5138765;27;20257;-79
2023/04/12 06:05:24;;;;;;;2.97;1.23;;;22.90;99.90;;;;;;5126273;27;20209;-78
2023/04/12 06:07:55;;;;;;;2.53;1.17;;;22.80;99.90;;;;;;5122734;27;20201;-78
2023/04/12 06:10:26;;;;;;;2.20;0.88;;;22.90;99.90;;;;;;5125249;27;20272;-77
2023/04/12 06:12:57;;;;;;;1.85;1.00;;;23.20;99.90;;;;;;5137621;27;20222;-77
2023/04/12 06:15:30;;;;;;;2.22;1.25;;;23.40;99.90;;;;;;5133451;27;20205;-78
2023/04/12 06:18:03;;;;;;;1.05;0.95;;;23.40;99.90;;;;;;5133740;27;20659;-77
2023/04/12 06:20:34;;;;;;;2.10;0.80;;;23.60;99.90;;;;;;5132349;27;20221;-78
2023/04/12 06:23:05;;;;;;;2.78;1.00;;;23.70;99.90;;;;;;5123935;27;20254;-77
2023/04/12 06:25:37;;;;;;;1.67;0.90;;;23.70;99.90;;;;;;5119497;27;20856;-77
2023/04/12 06:28:08;;;;;;;5.07;1.20;;;23.70;99.90;;;;;;5131547;27;20200;-78
2023/04/12 06:30:39;;;;;;;2.47;1.10;;;23.80;99.90;;;;;;5131653;27;20220;-77
2023/04/12 06:33:13;;;;;;;1.50;0.82;;;23.80;99.90;;;;;;5132301;27;20224;-78
2023/04/12 06:35:44;;;;;;;1.65;0.93;;;23.90;99.90;;;;;;5133059;27;20649;-77
2023/04/12 06:38:17;;;;;;;1.60;1.08;;;23.80;99.90;;;;;;5130590;27;20201;-77
2023/04/12 06:40:48;;;;;;;2.15;1.00;;;23.90;99.90;;;;;;5130360;27;20198;-78
2023/04/12 06:43:21;;;;;;;1.17;0.90;;;23.80;99.90;;;;;;5121692;27;20194;-77
2023/04/12 06:45:52;;;;;;;1.48;0.90;;;23.70;99.90;;;;;;5120533;27;20200;-78
2023/04/12 06:48:25;;;;;;;2.92;0.90;;;23.70;99.90;;;;;;5113028;27;20669;-80
2023/04/12 06:50:57;;;;;;;1.58;0.90;;;23.50;99.90;;;;;;5131919;27;20196;-80
2023/04/12 06:53:28;;;;;;;1.27;0.80;;;23.40;99.90;;;;;;5126165;27;20687;-79
2023/04/12 06:55:59;;;;;;;1.45;1.00;;;23.30;99.90;;;;;;5133052;27;20197;-78
2023/04/12 06:58:32;;;;;;;2.47;1.00;;;23.20;99.90;;;;;;5130241;27;20190;-79
2023/04/12 07:01:08;;;;;;;2.13;0.90;;;23.00;99.90;;;;;;5117978;27;20202;-79
2023/04/12 07:03:44;;;;;;;4.15;1.10;;;22.80;99.90;;;;;;5119785;28;20195;-79
2023/04/12 07:06:15;;;;;;;2.35;1.00;;;22.80;99.90;;;;;;5130544;27;20217;-79
2023/04/12 07:08:47;;;;;;;1.05;0.88;;;22.60;99.90;;;;;;5137744;27;20198;-80
2023/04/12 07:11:18;;;;;;;2.35;1.17;;;22.50;99.90;;;;;;5127800;27;20713;-77
2023/04/12 07:13:49;;;;;;;0.85;0.80;;;22.40;99.90;;;;;;5131801;28;20247;-79
2023/04/12 07:16:20;;;;;;;1.33;0.98;;;22.20;99.90;;;;;;5130951;27;20190;-78
2023/04/12 07:18:53;;;;;;;1.33;0.90;;;22.20;99.90;;;;;;5131588;27;20190;-79
2023/04/12 07:21:24;;;;;;;2.28;0.88;;;22.10;99.90;;;;;;5126981;28;20201;-79
2023/04/12 07:23:55;;;;;;;0.93;0.85;;;22.00;99.90;;;;;;5110982;28;20230;-79
2023/04/12 07:26:27;;;;;;;2.75;1.30;;;22.00;99.90;;;;;;5125704;27;20198;-79
2023/04/12 07:28:58;;;;;;;1.88;1.33;;;21.90;99.90;;;;;;5119154;27;20564;-79
2023/04/12 07:31:30;;;;;;;4.03;1.55;;;21.80;99.90;;;;;;5133918;27;20190;-79
2023/04/12 07:34:03;;;;;;;2.53;1.27;;;21.80;99.90;;;;;;5135979;27;20202;-80
2023/04/12 07:36:34;;;;;;;4.47;1.30;;;21.70;99.90;;;;;;5134367;27;20201;-79
2023/04/12 07:39:05;;;;;;;2.53;1.60;;;21.70;99.90;;;;;;5136752;27;20201;-79
2023/04/12 07:41:38;;;;;;;4.32;1.10;;;21.50;99.90;;;;;;5134127;27;20198;-79
2023/04/12 07:44:10;;;;;;;1.80;1.10;;;21.40;99.90;;;;;;5135773;27;20629;-79
2023/04/12 07:46:42;;;;;;;1.65;0.95;;;21.30;99.90;;;;;;5099839;27;20199;-78
2023/04/12 07:49:15;;;;;;;2.97;1.42;;;21.20;99.90;;;;;;5135269;27;20194;-80
2023/04/12 07:51:46;;;;;;;4.18;1.35;;;21.10;99.90;;;;;;5134084;27;20218;-80
2023/04/12 07:54:17;;;;;;;3.90;1.35;;;21.10;99.90;;;;;;5134963;27;20202;-81
2023/04/12 07:57:02;;;;;;;1.67;1.00;;;21.00;99.90;;;;;;5133500;27;20186;-78
2023/04/12 07:59:33;;;;;;;2.08;1.10;;;20.90;99.90;;;;;;5129427;27;20197;-78
2023/04/12 08:02:04;;;;;;;1.17;0.90;;;20.80;99.90;;;;;;5124621;27;20224;-79
2023/04/12 08:04:37;;;;;;;1.85;1.00;;;20.80;99.90;;;;;;5133211;27;20214;-79
2023/04/12 08:07:09;;;;;;;2.28;0.90;;;20.80;99.90;;;;;;5132524;27;20202;-79
2023/04/12 08:09:40;;;;;;;2.88;0.88;;;20.80;99.90;;;;;;5135550;27;20678;-79
2023/04/12 08:12:11;;;;;;;2.63;1.20;;;20.80;99.90;;;;;;5134789;27;20213;-78
2023/04/12 08:14:42;;;;;;;1.25;0.90;;;20.70;99.90;;;;;;5134627;27;20197;-78
2023/04/12 08:17:14;;;;;;;2.58;1.10;;;20.70;99.90;;;;;;5131221;27;20201;-79
2023/04/12 08:19:47;;;;;;;1.85;1.05;;;20.70;99.90;;;;;;5134190;27;20194;-78
2023/04/12 08:22:18;;;;;;;1.88;1.17;;;20.70;99.90;;;;;;5115462;27;20190;-77
2023/04/12 08:24:49;;;;;;;2.63;1.33;;;20.60;99.90;;;;;;5127016;27;20229;-78
2023/04/12 08:27:20;;;;;;;2.88;1.20;;;20.60;99.90;;;;;;5129307;27;20672;-77
2023/04/12 08:29:51;;;;;;;2.17;1.35;;;20.60;99.90;;;;;;5117129;27;20203;-77
2023/04/12 08:32:22;;;;;;;3.85;1.23;;;20.50;99.90;;;;;;5130743;27;21018;-78
2023/04/12 08:34:56;;;;;;;1.60;1.30;;;20.50;99.90;;;;;;5132564;27;20644;-78
2023/04/12 08:37:27;;;;;;;1.70;1.20;;;20.40;99.90;;;;;;5131914;27;20364;-79
2023/04/12 08:39:58;;;;;;;2.53;1.55;;;20.40;99.90;;;;;;5125107;27;20653;-80
2023/04/12 08:42:30;;;;;;;1.75;1.27;;;20.30;99.90;;;;;;5130120;27;20197;-78
2023/04/12 08:45:05;;;;;;;3.30;1.60;;;20.30;99.90;;;;;;5133923;27;20208;-77
2023/04/12 08:47:39;;;;;;;2.63;1.67;;;20.20;99.90;;;;;;5130639;27;20660;-78
2023/04/12 08:50:14;;;;;;;3.58;1.73;;;20.30;99.90;;;;;;5131927;27;20198;-78
2023/04/12 08:52:46;;;;;;;2.30;1.35;;;20.30;99.90;;;;;;5132962;27;20213;-78
2023/04/12 08:55:17;;;;;;;3.10;1.60;;;20.20;99.90;;;;;;5133537;27;20202;-77
2023/04/12 08:57:49;;;;;;;1.90;1.50;;;20.20;99.90;;;;;;5133762;27;20198;-77
2023/04/12 09:00:21;;;;;;;2.00;1.27;;;20.20;99.90;;;;;;5123179;27;20243;-77
2023/04/12 09:02:53;;;;;;;3.00;2.30;;;20.10;99.90;;;;;;5131682;27;20213;-77
2023/04/12 09:05:30;;;;;;;3.30;2.25;;;20.10;99.90;;;;;;5129969;27;20218;-77
2023/04/12 09:08:02;;;;;;;2.67;1.80;;;20.10;99.90;;;;;;5132186;27;20198;-77
2023/04/12 09:10:37;;;;;;;2.72;1.63;;;20.10;99.90;;;;;;5131927;27;20201;-78
2023/04/12 09:13:09;;;;;;;1.92;1.25;;;20.10;99.90;;;;;;5131678;27;20244;-78
2023/04/12 09:15:51;;;;;;;4.50;1.45;;;20.10;99.90;;;;;;5132295;27;20277;-77
2023/04/12 09:18:23;;;;;;;3.17;1.55;;;20.00;99.90;;;;;;5118753;27;20202;-77
2023/04/12 09:21:10;;;;;;;3.20;1.58;;;20.00;99.90;;;;;;5134302;27;20209;-77
2023/04/12 09:23:41;;;;;;;3.53;1.50;;;19.90;99.90;;;;;;5132086;27;20213;-77
2023/04/12 09:26:28;;;;;;;2.85;1.80;;;19.90;99.90;;;;;;5133107;27;20201;-77
2023/04/12 09:28:59;;;;;;;3.80;1.92;;;19.90;99.90;;;;;;5132201;27;20186;-78
2023/04/12 09:31:30;;;;;;;3.65;1.60;;;19.90;99.90;;;;;;5124362;27;20198;-77
2023/04/12 09:34:09;;;;;;;2.65;1.48;;;19.80;99.90;;;;;;5115981;27;20236;-77
2023/04/12 09:36:46;;;;;;;2.25;1.40;;;19.80;99.90;;;;;;5130604;27;20280;-78
2023/04/12 09:39:17;;;;;;;5.57;1.55;;;19.80;99.90;;;;;;5129713;27;20197;-77
2023/04/12 09:41:48;;;;;;;1.92;1.38;;;19.80;99.90;;;;;;5133164;27;20194;-78
2023/04/12 09:44:33;;;;;;;1.98;1.17;;;19.90;99.90;;;;;;5125619;27;20194;-78
2023/04/12 09:47:05;;;;;;;2.90;1.50;;;19.90;99.90;;;;;;5131315;27;20190;-78
2023/04/12 09:49:43;;;;;;;2.33;1.58;;;19.90;99.90;;;;;;5131241;27;20652;-78
2023/04/12 09:52:17;;;;;;;3.25;1.95;;;19.90;99.90;;;;;;5133199;27;20598;-78
2023/04/12 09:54:49;;;;;;;3.58;2.10;;;19.90;99.90;;;;;;5131601;27;20202;-78
2023/04/12 09:57:22;;;;;;;4.47;2.70;;;19.80;99.90;;;;;;5132391;27;20725;-78
2023/04/12 09:59:56;;;;;;;5.63;3.15;;;19.80;99.90;;;;;;5130720;27;20194;-78
2023/04/12 10:02:32;;;;;;;3.88;2.53;;;19.80;99.90;;;;;;5120525;27;20201;-79
2023/04/12 10:05:04;;;;;;;5.53;3.13;;;19.80;99.90;;;;;;5130985;27;20228;-78
2023/04/12 10:07:41;;;;;;;10.35;5.07;;;19.80;99.90;;;;;;5129794;27;20640;-78
2023/04/12 10:10:13;;;;;;;3.85;2.53;;;19.80;99.90;;;;;;5131332;27;20693;-78
2023/04/12 10:12:45;;;;;;;5.15;2.67;;;19.80;99.90;;;;;;5132556;27;20221;-78
2023/04/12 10:15:19;;;;;;;4.70;2.53;;;19.80;99.90;;;;;;5131032;27;20200;-77
2023/04/12 10:17:52;;;;;;;3.95;2.50;;;19.80;99.90;;;;;;5119297;27;20202;-78
2023/04/12 10:20:24;;;;;;;3.97;2.10;;;19.70;99.90;;;;;;5129050;27;20197;-78
2023/04/12 10:22:58;;;;;;;2.97;2.03;;;19.80;99.90;;;;;;5129913;27;20562;-78
2023/04/12 10:25:29;;;;;;;2.17;1.50;;;19.80;99.90;;;;;;5134546;27;20201;-77
2023/04/12 10:28:14;;;;;;;2.78;1.50;;;19.80;99.90;;;;;;5129919;27;20664;-77
2023/04/12 10:30:50;;;;;;;2.22;1.50;;;19.80;99.90;;;;;;5131934;27;20201;-78
2023/04/12 10:33:27;;;;;;;3.80;1.80;;;19.80;99.90;;;;;;5128622;27;20692;-77
2023/04/12 10:36:02;;;;;;;5.13;1.73;;;19.80;99.90;;;;;;5127053;27;20281;-79
2023/04/12 10:38:48;;;;;;;3.03;2.17;;;19.80;99.90;;;;;;5127748;27;20197;-79
2023/04/12 10:41:20;;;;;;;3.35;2.20;;;19.80;99.90;;;;;;5111354;28;20206;-78
2023/04/12 10:43:52;;;;;;;2.85;1.77;;;19.80;99.90;;;;;;5121065;27;20198;-79
2023/04/12 10:46:55;;;;;;;3.15;2.00;;;19.80;99.90;;;;;;5131666;27;20204;-79
2023/04/12 10:49:26;;;;;;;4.50;2.92;;;19.80;99.90;;;;;;5128746;27;20193;-78
2023/04/12 10:52:17;;;;;;;3.80;2.60;;;19.70;99.90;;;;;;5130916;27;20668;-80
2023/04/12 10:54:50;;;;;;;3.55;2.25;;;19.70;99.90;;;;;;5129357;27;20201;-78
2023/04/12 10:57:48;;;;;;;3.15;1.65;;;19.70;99.90;;;;;;5131374;27;20668;-77
2023/04/12 11:00:20;;;;;;;3.15;1.52;;;19.70;99.90;;;;;;5083882;27;20300;-78
2023/04/12 11:03:10;;;;;;;3.35;1.80;;;19.70;99.90;;;;;;5130752;27;20698;-77
2023/04/12 11:06:00;;;;;;;3.65;2.25;;;19.60;99.90;;;;;;5127798;27;20574;-77
2023/04/12 11:08:33;;;;;;;4.05;2.00;;;19.60;99.90;;;;;;5126936;28;20229;-78
2023/04/12 11:11:19;;;;;;;5.10;2.25;;;19.60;99.90;;;;;;5126852;27;20197;-78
2023/04/12 11:13:50;;;;;;;3.55;2.17;;;19.50;99.90;;;;;;5130240;27;20692;-77
2023/04/12 11:16:21;;;;;;;4.60;2.10;;;19.40;99.90;;;;;;5130054;27;20568;-78
2023/04/12 11:18:53;;;;;;;3.58;1.92;;;19.40;99.90;;;;;;5129147;27;20221;-77
2023/04/12 11:21:25;;;;;;;4.18;1.73;;;19.30;99.90;;;;;;5131537;27;20660;-77
2023/04/12 11:23:58;;;;;;;3.47;1.92;;;19.30;99.90;;;;;;5129440;27;20225;-77
2023/04/12 11:26:33;;;;;;;2.63;2.00;;;19.30;99.90;;;;;;5128204;27;20197;-77
2023/04/12 11:29:15;;;;;;;1.67;1.50;;;19.20;99.90;;;;;;5128258;27;20204;-78
2023/04/12 11:31:46;;;;;;;5.88;2.00;;;19.20;99.90;;;;;;5131039;27;20200;-77
2023/04/12 11:34:19;;;;;;;2.20;1.60;;;19.20;99.90;;;;;;5130546;27;20691;-78
2023/04/12 11:36:53;;;;;;;2.20;1.55;;;19.30;99.90;;;;;;5129024;28;20190;-77
2023/04/12 11:39:24;;;;;;;3.50;1.67;;;19.30;99.90;;;;;;5129084;28;20281;-78
2023/04/12 11:41:58;;;;;;;3.40;1.70;;;19.30;99.90;;;;;;5120774;27;20197;-77
2023/04/12 11:44:29;;;;;;;2.47;1.35;;;19.30;99.90;;;;;;5113125;28;20198;-76
2023/04/12 11:47:01;;;;;;;1.85;1.40;;;19.30;99.90;;;;;;5130081;27;20596;-77
2023/04/12 11:49:32;;;;;;;2.75;1.50;;;19.30;99.90;;;;;;5130601;28;20197;-77
2023/04/12 11:52:06;;;;;;;2.63;1.70;;;19.30;99.90;;;;;;5131599;27;20205;-76
2023/04/12 11:54:38;;;;;;;5.57;1.73;;;19.20;99.90;;;;;;5129944;27;20583;-76
2023/04/12 11:57:14;;;;;;;2.40;1.67;;;19.20;99.90;;;;;;5131294;27;20745;-78
2023/04/12 11:59:47;;;;;;;3.08;1.50;;;19.20;99.90;;;;;;5124707;28;20613;-76
2023/04/12 12:02:19;;;;;;;3.28;1.83;;;19.20;99.90;;;;;;5127395;28;20657;-78
2023/04/12 12:04:51;;;;;;;3.08;1.80;;;19.20;99.90;;;;;;5124779;27;20222;-77
2023/04/12 12:07:23;;;;;;;4.97;1.98;;;19.20;99.90;;;;;;5129597;27;20194;-77
2023/04/12 12:09:54;;;;;;;2.33;1.73;;;19.10;99.90;;;;;;5123755;27;20190;-77
2023/04/12 12:12:28;;;;;;;3.53;2.00;;;19.20;99.90;;;;;;5129977;27;20193;-77
2023/04/12 12:15:17;;;;;;;4.85;2.08;;;19.20;99.90;;;;;;5133577;27;20220;-77
2023/04/12 12:17:52;;;;;;;3.53;2.00;;;19.20;99.90;;;;;;5134225;27;20672;-78
2023/04/12 12:20:24;;;;;;;6.22;2.30;;;19.10;99.90;;;;;;5132613;27;20193;-76
2023/04/12 12:22:55;;;;;;;4.72;2.20;;;19.10;99.90;;;;;;5134648;27;20198;-77
2023/04/12 12:25:26;;;;;;;4.57;2.90;;;19.10;99.90;;;;;;5131437;27;20198;-77
2023/04/12 12:28:04;;;;;;;4.30;2.72;;;19.00;99.90;;;;;;5120347;27;20217;-76
2023/04/12 12:30:40;;;;;;;5.57;3.22;;;19.00;99.90;;;;;;5130580;27;20532;-77
2023/04/12 12:33:12;;;;;;;5.22;3.70;;;19.00;99.90;;;;;;5134360;27;20213;-77
2023/04/12 12:35:44;;;;;;;5.75;4.00;;;19.00;99.90;;;;;;5134128;27;20551;-76
2023/04/12 12:38:15;;;;;;;6.00;3.70;;;19.10;99.90;;;;;;5135930;27;20220;-77
2023/04/12 12:40:46;;;;;;;6.65;3.95;;;19.10;99.90;;;;;;5133455;27;20198;-77
2023/04/12 12:43:24;;;;;;;7.78;3.72;;;19.00;99.90;;;;;;5124150;27;20206;-77
2023/04/12 12:45:55;;;;;;;6.57;3.60;;;19.00;99.90;;;;;;5130879;27;20197;-77
2023/04/12 12:48:27;;;;;;;5.03;3.20;;;19.00;99.90;;;;;;5133083;27;20194;-77
2023/04/12 12:50:58;;;;;;;3.95;3.05;;;19.00;99.90;;;;;;5134156;27;20668;-77
2023/04/12 12:53:29;;;;;;;3.35;2.67;;;19.00;99.90;;;;;;5131862;27;20620;-76
2023/04/12 12:56:00;;;;;;;8.13;3.15;;;19.00;99.90;;;;;;5125662;27;20198;-77
2023/04/12 12:58:33;;;;;;;5.90;2.80;;;19.00;99.90;;;;;;5115808;27;20197;-77
2023/04/12 13:01:04;;;;;;;3.38;2.38;;;19.00;99.90;;;;;;5133977;27;20197;-77
2023/04/12 13:03:36;;;;;;;5.80;2.50;;;19.00;99.90;;;;;;5133498;27;20201;-77
2023/04/12 13:06:08;;;;;;;4.50;2.50;;;19.10;99.90;;;;;;5132647;27;20214;-78
2023/04/12 13:08:39;;;;;;;4.00;2.40;;;19.10;99.90;;;;;;5130248;27;20690;-77
2023/04/12 13:11:11;;;;;;;3.80;2.42;;;19.10;99.90;;;;;;5132159;27;20194;-77
2023/04/12 13:13:44;;;;;;;3.83;2.58;;;19.00;99.90;;;;;;5116382;27;20221;-77
2023/04/12 13:16:15;;;;;;;5.90;2.30;;;19.00;99.90;;;;;;5132286;27;20198;-77